createdAt,value
2018-08-02T00:00:42.872Z,25.73
2018-08-02T00:01:48.810Z,25.71
2018-08-02T00:03:00.296Z,25.66
2018-08-02T00:04:06.320Z,25.63
2018-08-02T00:05:13.233Z,25.68
2018-08-02T00:06:19.359Z,25.73
2018-08-02T00:07:25.327Z,25.66
2018-08-02T00:08:31.315Z,25.53
2018-08-02T00:09:37.385Z,25.56
2018-08-02T00:10:43.536Z,25.43
2018-08-02T00:11:49.959Z,25.29
2018-08-02T00:12:56.001Z,25.24
2018-08-02T00:14:01.988Z,25.32
2018-08-02T00:15:08.322Z,25.21
2018-08-02T00:16:14.343Z,25.18
2018-08-02T00:17:20.593Z,25.26
2018-08-02T00:18:26.921Z,25.19
2018-08-02T00:19:32.939Z,25.18
2018-08-02T00:20:39.239Z,25.09
2018-08-02T00:21:45.351Z,25.07
2018-08-02T00:22:57.589Z,25.05
2018-08-02T00:24:03.602Z,25.06
2018-08-02T00:25:09.723Z,25.07
2018-08-02T00:26:16.137Z,25.11
2018-08-02T00:27:25.512Z,25.01
2018-08-02T00:28:31.517Z,24.99
2018-08-02T00:29:37.545Z,24.99
2018-08-02T00:30:43.835Z,25.01
2018-08-02T00:31:50.245Z,24.98
2018-08-02T00:32:56.388Z,24.98
2018-08-02T00:34:02.631Z,24.94
2018-08-02T00:35:09.663Z,24.95
2018-08-02T00:36:16.005Z,24.87
2018-08-02T00:37:22.291Z,24.82
2018-08-02T00:38:28.635Z,24.75
2018-08-02T00:39:34.990Z,24.74
2018-08-02T00:40:41.232Z,24.71
2018-08-02T00:41:47.595Z,24.69
2018-08-02T00:42:53.880Z,24.72
2018-08-02T00:44:00.226Z,24.72
2018-08-02T00:45:05.911Z,24.71
2018-08-02T00:46:13.208Z,24.67
2018-08-02T00:47:19.404Z,24.57
2018-08-02T00:48:25.620Z,24.54
2018-08-02T00:49:31.938Z,24.52
2018-08-02T00:50:37.952Z,24.48
2018-08-02T00:51:44.356Z,24.41
2018-08-02T00:52:50.664Z,24.40
2018-08-02T00:53:56.998Z,24.38
2018-08-02T00:55:02.989Z,24.38
2018-08-02T00:56:09.391Z,24.41
2018-08-02T00:57:15.729Z,24.42
2018-08-02T00:58:22.033Z,24.37
2018-08-02T00:59:28.385Z,24.33
2018-08-02T01:00:34.377Z,24.31
2018-08-02T01:01:39.907Z,24.29
2018-08-02T01:02:46.427Z,24.34
2018-08-02T01:03:52.669Z,24.29
2018-08-02T01:04:59.632Z,24.22
2018-08-02T01:06:06.357Z,24.19
2018-08-02T01:07:12.727Z,24.21
2018-08-02T01:08:18.929Z,24.15
2018-08-02T01:09:25.241Z,24.11
2018-08-02T01:10:31.655Z,24.06
2018-08-02T01:11:37.746Z,24.08
2018-08-02T01:12:43.801Z,24.02
2018-08-02T01:13:50.178Z,24.03
2018-08-02T01:14:56.516Z,24.03
2018-08-02T01:16:03.367Z,23.98
2018-08-02T01:17:09.528Z,23.95
2018-08-02T01:18:16.329Z,23.96
2018-08-02T01:19:22.002Z,23.95
2018-08-02T01:20:27.870Z,23.92
2018-08-02T01:21:34.275Z,23.87
2018-08-02T01:22:40.572Z,23.83
2018-08-02T01:23:46.662Z,23.83
2018-08-02T01:24:52.730Z,23.82
2018-08-02T01:25:59.574Z,23.82
2018-08-02T01:27:05.266Z,23.81
2018-08-02T01:28:11.274Z,23.79
2018-08-02T01:29:17.228Z,23.79
2018-08-02T01:30:23.275Z,23.75
2018-08-02T01:31:29.489Z,23.66
2018-08-02T01:32:36.393Z,23.64
2018-08-02T01:33:42.774Z,23.60
2018-08-02T01:34:49.101Z,23.58
2018-08-02T01:35:55.056Z,23.60
2018-08-02T01:37:01.336Z,23.59
2018-08-02T01:38:08.344Z,23.57
2018-08-02T01:39:14.743Z,23.57
2018-08-02T01:40:21.103Z,23.55
2018-08-02T01:41:27.399Z,23.57
2018-08-02T01:42:33.361Z,23.55
2018-08-02T01:43:39.821Z,23.56
2018-08-02T01:44:45.117Z,23.55
2018-08-02T01:45:51.169Z,23.56
2018-08-02T01:46:57.627Z,23.55
2018-08-02T01:48:03.928Z,23.58
2018-08-02T01:49:10.233Z,23.58
2018-08-02T01:50:16.566Z,23.57
2018-08-02T01:51:22.943Z,23.60
2018-08-02T01:52:29.305Z,23.64
2018-08-02T01:53:36.442Z,23.63
2018-08-02T01:54:43.522Z,23.65
2018-08-02T01:55:49.859Z,23.71
2018-08-02T01:56:56.189Z,23.69
2018-08-02T01:58:02.478Z,23.66
2018-08-02T01:59:08.622Z,23.73
2018-08-02T02:00:15.153Z,23.74
2018-08-02T02:01:21.318Z,23.73
2018-08-02T02:02:27.427Z,23.77
2018-08-02T02:03:34.270Z,23.79
2018-08-02T02:04:40.657Z,23.83
2018-08-02T02:05:47.749Z,23.85
2018-08-02T02:06:53.651Z,23.82
2018-08-02T02:07:59.656Z,23.84
2018-08-02T02:09:05.194Z,23.83
2018-08-02T02:10:11.241Z,23.83
2018-08-02T02:11:17.178Z,23.83
2018-08-02T02:12:23.489Z,23.91
2018-08-02T02:13:29.828Z,23.93
2018-08-02T02:14:37.282Z,24.00
2018-08-02T02:15:43.465Z,24.05
2018-08-02T02:16:49.759Z,24.03
2018-08-02T02:17:56.092Z,24.04
2018-08-02T02:19:02.461Z,24.02
2018-08-02T02:20:08.264Z,23.99
2018-08-02T02:21:13.963Z,23.98
2018-08-02T02:22:20.126Z,23.96
2018-08-02T02:23:26.425Z,23.97
2018-08-02T02:24:32.720Z,23.99
2018-08-02T02:25:39.048Z,24.02
2018-08-02T02:26:45.475Z,24.02
2018-08-02T02:27:51.819Z,24.06
2018-08-02T02:28:58.065Z,24.04
2018-08-02T02:30:04.350Z,24.10
2018-08-02T02:31:10.389Z,24.08
2018-08-02T02:32:16.369Z,24.03
2018-08-02T02:33:22.765Z,23.98
2018-08-02T02:34:29.036Z,23.98
2018-08-02T02:35:35.344Z,23.97
2018-08-02T02:36:41.668Z,23.93
2018-08-02T02:37:48.018Z,23.88
2018-08-02T02:38:54.295Z,23.90
2018-08-02T02:40:00.236Z,23.83
2018-08-02T02:41:06.797Z,23.82
2018-08-02T02:42:12.786Z,23.76
2018-08-02T02:43:19.243Z,23.72
2018-08-02T02:44:25.860Z,23.75
2018-08-02T02:45:32.799Z,23.62
2018-08-02T02:46:39.892Z,23.56
2018-08-02T02:47:46.294Z,23.52
2018-08-02T02:48:52.607Z,23.50
2018-08-02T02:49:58.920Z,23.53
2018-08-02T02:51:05.316Z,23.58
2018-08-02T02:52:11.544Z,23.45
2018-08-02T02:53:17.856Z,23.36
2018-08-02T02:54:24.220Z,23.35
2018-08-02T02:55:30.516Z,23.26
2018-08-02T02:56:36.824Z,23.24
2018-08-02T02:57:43.136Z,23.25
2018-08-02T02:58:50.007Z,23.21
2018-08-02T02:59:56.317Z,23.23
2018-08-02T03:01:02.267Z,23.22
2018-08-02T03:02:08.693Z,23.28
2018-08-02T03:03:15.017Z,23.17
2018-08-02T03:04:21.392Z,23.17
2018-08-02T03:05:27.707Z,23.20
2018-08-02T03:06:34.040Z,23.14
2018-08-02T03:07:40.359Z,23.13
2018-08-02T03:08:46.632Z,23.10
2018-08-02T03:09:52.951Z,23.03
2018-08-02T03:10:58.905Z,23.04
2018-08-02T03:12:04.665Z,23.04
2018-08-02T03:13:11.004Z,23.06
2018-08-02T03:14:17.492Z,22.98
2018-08-02T03:15:23.807Z,22.97
2018-08-02T03:16:30.147Z,23.02
2018-08-02T03:17:36.086Z,23.20
2018-08-02T03:18:42.122Z,23.24
2018-08-02T03:19:49.201Z,23.06
2018-08-02T03:20:55.541Z,22.95
2018-08-02T03:22:02.747Z,23.02
2018-08-02T03:23:09.156Z,23.15
2018-08-02T03:24:15.941Z,23.29
2018-08-02T03:25:22.383Z,23.43
2018-08-02T03:26:28.704Z,23.28
2018-08-02T03:27:34.821Z,23.08
2018-08-02T03:28:41.104Z,23.09
2018-08-02T03:29:47.415Z,23.22
2018-08-02T03:30:53.422Z,23.25
2018-08-02T03:31:59.864Z,23.27
2018-08-02T03:33:05.875Z,23.25
2018-08-02T03:34:12.278Z,22.99
2018-08-02T03:35:18.699Z,23.01
2018-08-02T03:36:24.973Z,23.08
2018-08-02T03:37:31.992Z,22.97
2018-08-02T03:38:39.023Z,23.08
2018-08-02T03:39:45.439Z,22.83
2018-08-02T03:40:51.740Z,22.89
2018-08-02T03:41:58.134Z,22.70
2018-08-02T03:43:04.541Z,22.71
2018-08-02T03:44:11.188Z,22.86
2018-08-02T03:45:17.954Z,22.68
2018-08-02T03:46:24.453Z,22.80
2018-08-02T03:47:30.860Z,22.76
2018-08-02T03:48:37.143Z,22.77
2018-08-02T03:49:44.022Z,22.67
2018-08-02T03:50:50.421Z,22.53
2018-08-02T03:51:56.628Z,22.48
2018-08-02T03:53:03.476Z,22.48
2018-08-02T03:54:10.276Z,22.44
2018-08-02T03:55:16.253Z,22.43
2018-08-02T03:56:22.773Z,22.36
2018-08-02T03:57:29.122Z,22.35
2018-08-02T03:58:35.439Z,22.38
2018-08-02T03:59:41.841Z,22.36
2018-08-02T04:00:47.947Z,22.32
2018-08-02T04:01:54.252Z,22.32
2018-08-02T04:03:00.555Z,22.30
2018-08-02T04:04:07.097Z,22.28
2018-08-02T04:05:14.455Z,22.25
2018-08-02T04:06:22.697Z,22.22
2018-08-02T04:07:30.475Z,22.20
2018-08-02T04:08:39.222Z,22.20
2018-08-02T04:09:49.125Z,22.23
2018-08-02T04:10:56.554Z,22.23
2018-08-02T04:12:03.413Z,22.20
2018-08-02T04:13:09.777Z,22.20
2018-08-02T04:14:16.601Z,22.20
2018-08-02T04:15:23.136Z,22.24
2018-08-02T04:16:29.611Z,22.20
2018-08-02T04:17:35.517Z,22.18
2018-08-02T04:18:41.669Z,22.22
2018-08-02T04:19:48.008Z,22.23
2018-08-02T04:20:54.274Z,22.24
2018-08-02T04:22:00.271Z,22.23
2018-08-02T04:23:06.330Z,22.21
2018-08-02T04:24:13.792Z,22.21
2018-08-02T04:25:20.772Z,22.20
2018-08-02T04:26:27.253Z,22.18
2018-08-02T04:27:33.722Z,22.20
2018-08-02T04:28:40.294Z,22.19
2018-08-02T04:29:46.652Z,22.17
2018-08-02T04:30:53.004Z,22.17
2018-08-02T04:31:59.333Z,22.18
2018-08-02T04:33:05.761Z,22.18
2018-08-02T04:34:13.387Z,22.21
2018-08-02T04:35:21.355Z,22.18
2018-08-02T04:36:28.929Z,22.22
2018-08-02T04:37:36.703Z,22.26
2018-08-02T04:38:44.138Z,22.27
2018-08-02T04:39:51.056Z,22.26
2018-08-02T04:40:58.068Z,22.26
2018-08-02T04:42:04.442Z,22.28
2018-08-02T04:43:11.439Z,22.29
2018-08-02T04:44:17.786Z,22.28
2018-08-02T04:45:24.025Z,22.29
2018-08-02T04:46:30.241Z,22.30
2018-08-02T04:47:35.904Z,22.31
2018-08-02T04:48:42.171Z,22.35
2018-08-02T04:49:48.531Z,22.36
2018-08-02T04:50:54.784Z,22.41
2018-08-02T04:52:01.092Z,22.40
2018-08-02T04:53:07.092Z,22.41
2018-08-02T04:54:13.506Z,22.47
2018-08-02T04:55:19.472Z,22.44
2018-08-02T04:56:26.319Z,22.45
2018-08-02T04:57:32.595Z,22.50
2018-08-02T04:58:38.901Z,22.53
2018-08-02T04:59:45.284Z,22.50
2018-08-02T05:00:51.887Z,22.51
2018-08-02T05:01:58.220Z,22.54
2018-08-02T05:03:04.545Z,22.52
2018-08-02T05:04:10.820Z,22.58
2018-08-02T05:05:17.135Z,22.60
2018-08-02T05:06:23.566Z,22.58
2018-08-02T05:07:30.332Z,22.64
2018-08-02T05:08:37.128Z,22.67
2018-08-02T05:09:43.411Z,22.94
2018-08-02T05:10:51.186Z,22.89
2018-08-02T05:11:58.136Z,22.80
2018-08-02T05:13:04.556Z,22.75
2018-08-02T05:14:10.840Z,22.96
2018-08-02T05:15:17.111Z,23.24
2018-08-02T05:16:23.561Z,23.34
2018-08-02T05:17:30.037Z,23.39
2018-08-02T05:18:37.225Z,23.49
2018-08-02T05:19:43.592Z,23.58
2018-08-02T05:20:49.924Z,23.38
2018-08-02T05:21:56.416Z,23.19
2018-08-02T05:23:02.417Z,23.35
2018-08-02T05:24:08.902Z,23.38
2018-08-02T05:25:15.209Z,23.42
2018-08-02T05:26:21.551Z,23.19
2018-08-02T05:27:28.189Z,22.97
2018-08-02T05:28:34.539Z,23.02
2018-08-02T05:29:40.840Z,23.13
2018-08-02T05:30:47.279Z,23.23
2018-08-02T05:31:54.429Z,23.22
2018-08-02T05:33:00.732Z,23.35
2018-08-02T05:34:11.261Z,23.30
2018-08-02T05:35:17.750Z,23.26
2018-08-02T05:36:24.574Z,23.34
2018-08-02T05:37:30.788Z,23.52
2018-08-02T05:38:37.171Z,23.61
2018-08-02T05:39:43.593Z,23.57
2018-08-02T05:40:50.025Z,23.41
2018-08-02T05:41:55.930Z,23.33
2018-08-02T05:43:02.318Z,23.07
2018-08-02T05:44:08.285Z,23.15
2018-08-02T05:45:14.737Z,23.39
2018-08-02T05:46:20.668Z,23.60
2018-08-02T05:47:27.969Z,23.57
2018-08-02T05:48:34.669Z,23.52
2018-08-02T05:49:41.029Z,23.38
2018-08-02T05:50:47.421Z,23.32
2018-08-02T05:51:53.741Z,23.27
2018-08-02T05:53:00.049Z,23.26
2018-08-02T05:54:06.940Z,23.27
2018-08-02T05:55:13.413Z,23.26
2018-08-02T05:56:19.676Z,23.25
2018-08-02T05:57:25.989Z,23.30
2018-08-02T05:58:33.058Z,23.03
2018-08-02T05:59:39.356Z,23.22
2018-08-02T06:00:45.770Z,23.24
2018-08-02T06:01:52.197Z,23.16
2018-08-02T06:02:58.980Z,22.97
2018-08-02T06:04:05.810Z,23.10
2018-08-02T06:05:11.811Z,23.24
2018-08-02T06:06:17.768Z,23.14
2018-08-02T06:07:24.046Z,23.20
2018-08-02T06:08:30.361Z,23.37
2018-08-02T06:09:36.867Z,23.42
2018-08-02T06:10:43.167Z,23.34
2018-08-02T06:11:49.495Z,23.18
2018-08-02T06:12:55.779Z,23.05
2018-08-02T06:14:02.052Z,22.80
2018-08-02T06:15:07.979Z,22.76
2018-08-02T06:16:14.214Z,22.58
2018-08-02T06:17:21.086Z,22.54
2018-08-02T06:18:27.483Z,22.49
2018-08-02T06:19:33.953Z,22.51
2018-08-02T06:20:40.272Z,22.73
2018-08-02T06:21:46.595Z,22.93
2018-08-02T06:22:53.035Z,22.91
2018-08-02T06:23:59.244Z,22.99
2018-08-02T06:25:05.629Z,22.95
2018-08-02T06:26:11.310Z,22.98
2018-08-02T06:27:17.540Z,22.77
2018-08-02T06:28:23.868Z,22.80
2018-08-02T06:29:30.447Z,22.85
2018-08-02T06:30:36.814Z,22.97
2018-08-02T06:31:43.117Z,23.00
2018-08-02T06:32:49.559Z,22.97
2018-08-02T06:33:55.893Z,23.11
2018-08-02T06:35:02.185Z,23.21
2018-08-02T06:36:08.424Z,23.06
2018-08-02T06:38:24.618Z,23.10
2018-08-02T06:39:30.175Z,23.03
2018-08-02T06:40:35.757Z,23.06
2018-08-02T06:41:41.316Z,23.10
2018-08-02T06:42:46.851Z,22.96
2018-08-02T06:43:52.204Z,22.87
2018-08-02T06:44:57.844Z,22.77
2018-08-02T06:46:03.748Z,22.82
2018-08-02T06:47:09.111Z,22.92
2018-08-02T06:48:14.231Z,23.20
2018-08-02T06:49:20.659Z,23.12
2018-08-02T06:50:26.661Z,23.05
2018-08-02T06:51:32.971Z,23.13
2018-08-02T06:52:39.290Z,23.22
2018-08-02T06:53:45.590Z,23.02
2018-08-02T06:54:51.555Z,23.06
2018-08-02T06:55:58.756Z,22.87
2018-08-02T06:57:04.752Z,22.93
2018-08-02T06:58:10.790Z,22.94
2018-08-02T06:59:17.184Z,22.86
2018-08-02T07:00:24.140Z,22.87
2018-08-02T07:01:30.672Z,22.87
2018-08-02T07:02:37.111Z,22.47
2018-08-02T07:03:43.408Z,22.37
2018-08-02T07:04:50.363Z,22.32
2018-08-02T07:05:56.618Z,22.30
2018-08-02T07:07:02.941Z,22.45
2018-08-02T07:08:09.468Z,22.57
2018-08-02T07:09:15.911Z,22.54
2018-08-02T07:10:22.181Z,22.58
2018-08-02T07:11:28.501Z,22.57
2018-08-02T07:12:34.850Z,22.64
2018-08-02T07:13:41.119Z,22.51
2018-08-02T07:14:47.548Z,22.48
2018-08-02T07:15:53.841Z,22.28
2018-08-02T07:17:00.154Z,22.20
2018-08-02T07:18:06.832Z,22.09
2018-08-02T07:19:13.134Z,22.11
2018-08-02T07:20:19.178Z,22.15
2018-08-02T07:21:25.327Z,22.22
2018-08-02T07:22:31.635Z,22.35
2018-08-02T07:23:37.722Z,22.50
2018-08-02T07:24:44.166Z,22.51
2018-08-02T07:25:50.252Z,22.53
2018-08-02T07:26:56.564Z,22.38
2018-08-02T07:28:02.913Z,22.24
2018-08-02T07:29:09.212Z,22.32
2018-08-02T07:30:15.537Z,22.45
2018-08-02T07:31:22.568Z,22.57
2018-08-02T07:32:29.406Z,22.59
2018-08-02T07:33:35.841Z,22.26
2018-08-02T07:34:42.396Z,22.25
2018-08-02T07:35:48.735Z,22.39
2018-08-02T07:36:54.964Z,22.50
2018-08-02T07:38:01.273Z,22.49
2018-08-02T07:39:07.572Z,22.51
2018-08-02T07:40:13.845Z,22.54
2018-08-02T07:41:20.153Z,22.45
2018-08-02T07:42:26.455Z,22.41
2018-08-02T07:43:32.571Z,22.54
2018-08-02T07:44:38.926Z,22.42
2018-08-02T07:45:44.856Z,22.24
2018-08-02T07:46:52.089Z,22.31
2018-08-02T07:47:58.432Z,22.31
2018-08-02T07:49:04.906Z,22.29
2018-08-02T07:50:11.983Z,22.15
2018-08-02T07:51:18.401Z,22.00
2018-08-02T07:52:24.696Z,22.11
2018-08-02T07:53:31.032Z,22.17
2018-08-02T07:54:37.362Z,22.18
2018-08-02T07:55:43.698Z,22.21
2018-08-02T07:56:49.955Z,22.31
2018-08-02T07:57:56.254Z,22.53
2018-08-02T07:59:02.230Z,22.63
2018-08-02T08:00:08.477Z,22.65
2018-08-02T08:01:15.930Z,22.52
2018-08-02T08:02:22.092Z,22.50
2018-08-02T08:03:29.092Z,22.37
2018-08-02T08:04:35.488Z,22.28
2018-08-02T08:05:43.694Z,22.20
2018-08-02T08:06:50.182Z,22.16
2018-08-02T08:07:56.651Z,22.20
2018-08-02T08:09:02.858Z,22.16
2018-08-02T08:10:09.100Z,22.11
2018-08-02T08:11:15.136Z,22.21
2018-08-02T08:12:21.606Z,22.13
2018-08-02T08:13:27.892Z,22.14
2018-08-02T08:14:34.009Z,22.15
2018-08-02T08:15:40.467Z,22.19
2018-08-02T08:16:46.744Z,22.48
2018-08-02T08:17:52.717Z,22.57
2018-08-02T08:18:59.043Z,22.70
2018-08-02T08:20:04.735Z,22.62
2018-08-02T08:21:11.545Z,22.65
2018-08-02T08:22:18.111Z,22.55
2018-08-02T08:23:24.729Z,22.52
2018-08-02T08:24:31.458Z,22.44
2018-08-02T08:25:37.529Z,22.36
2018-08-02T08:26:44.411Z,22.28
2018-08-02T08:27:50.520Z,22.16
2018-08-02T08:28:56.793Z,22.19
2018-08-02T08:30:03.117Z,22.29
2018-08-02T08:31:09.420Z,22.26
2018-08-02T08:32:15.824Z,22.25
2018-08-02T08:33:22.392Z,22.20
2018-08-02T08:34:28.720Z,22.28
2018-08-02T08:35:34.971Z,22.42
2018-08-02T08:36:41.800Z,22.52
2018-08-02T08:37:48.346Z,22.63
2018-08-02T08:38:55.232Z,22.67
2018-08-02T08:40:02.972Z,22.78
2018-08-02T08:41:10.466Z,22.90
2018-08-02T08:42:16.750Z,22.93
2018-08-02T08:43:23.098Z,22.96
2018-08-02T08:44:29.698Z,22.92
2018-08-02T08:45:36.039Z,23.03
2018-08-02T08:46:42.489Z,23.09
2018-08-02T08:47:48.815Z,23.18
2018-08-02T08:48:55.073Z,23.18
2018-08-02T08:50:02.665Z,23.10
2018-08-02T08:51:09.369Z,23.18
2018-08-02T08:52:15.469Z,23.23
2018-08-02T08:53:22.439Z,23.36
2018-08-02T08:54:30.440Z,23.41
2018-08-02T08:55:37.224Z,23.38
2018-08-02T08:56:43.536Z,23.51
2018-08-02T08:57:49.783Z,23.47
2018-08-02T08:58:55.321Z,23.47
2018-08-02T09:00:01.436Z,23.54
2018-08-02T09:01:07.542Z,23.38
2018-08-02T09:02:14.073Z,23.33
2018-08-02T09:03:20.364Z,23.34
2018-08-02T09:04:26.328Z,23.37
2018-08-02T09:05:32.885Z,23.35
2018-08-02T09:06:39.183Z,23.33
2018-08-02T09:07:45.474Z,23.41
2018-08-02T09:08:51.808Z,23.41
2018-08-02T09:09:58.944Z,23.55
2018-08-02T09:11:05.742Z,23.73
2018-08-02T09:12:11.675Z,24.00
2018-08-02T09:13:17.959Z,24.02
2018-08-02T09:14:24.410Z,24.11
2018-08-02T09:15:30.925Z,23.97
2018-08-02T09:16:37.188Z,23.93
2018-08-02T09:17:43.515Z,23.99
2018-08-02T09:18:51.312Z,24.06
2018-08-02T09:19:57.730Z,24.12
2018-08-02T09:21:03.679Z,24.10
2018-08-02T09:22:09.763Z,24.19
2018-08-02T09:23:16.014Z,24.20
2018-08-02T09:24:21.946Z,24.20
2018-08-02T09:25:28.350Z,24.09
2018-08-02T09:26:34.313Z,24.22
2018-08-02T09:27:40.835Z,24.24
2018-08-02T09:28:47.144Z,24.13
2018-08-02T09:29:53.461Z,24.10
2018-08-02T09:30:59.805Z,24.16
2018-08-02T09:32:05.784Z,24.16
2018-08-02T09:33:12.373Z,24.15
2018-08-02T09:34:19.428Z,24.15
2018-08-02T09:35:25.775Z,24.10
2018-08-02T09:36:32.075Z,24.02
2018-08-02T09:37:38.670Z,23.93
2018-08-02T09:38:44.888Z,23.90
2018-08-02T09:39:51.209Z,23.90
2018-08-02T09:40:57.637Z,23.95
2018-08-02T09:42:04.304Z,23.93
2018-08-02T09:43:10.581Z,23.95
2018-08-02T09:44:17.669Z,23.99
2018-08-02T09:45:24.020Z,24.00
2018-08-02T09:46:30.395Z,23.99
2018-08-02T09:47:36.992Z,23.89
2018-08-02T09:48:43.240Z,23.96
2018-08-02T09:49:49.330Z,23.91
2018-08-02T09:50:55.735Z,24.00
2018-08-02T09:52:01.955Z,24.08
2018-08-02T09:53:08.261Z,24.09
2018-08-02T09:54:13.915Z,24.07
2018-08-02T09:55:19.872Z,24.12
2018-08-02T09:56:26.214Z,24.21
2018-08-02T09:57:33.212Z,24.22
2018-08-02T09:58:39.570Z,24.26
2018-08-02T09:59:46.010Z,24.25
2018-08-02T10:00:52.152Z,24.25
2018-08-02T10:01:59.332Z,24.30
2018-08-02T10:03:05.555Z,24.37
2018-08-02T10:04:11.517Z,24.31
2018-08-02T10:05:17.862Z,24.35
2018-08-02T10:06:23.819Z,24.38
2018-08-02T10:07:30.117Z,24.48
2018-08-02T10:08:36.442Z,24.53
2018-08-02T10:09:42.457Z,24.51
2018-08-02T10:10:48.880Z,24.55
2018-08-02T10:11:55.201Z,24.68
2018-08-02T10:13:01.448Z,24.70
2018-08-02T10:14:07.692Z,24.71
2018-08-02T10:15:14.029Z,24.85
2018-08-02T10:16:20.333Z,24.99
2018-08-02T10:17:26.739Z,25.21
2018-08-02T10:18:33.047Z,25.09
2018-08-02T10:19:39.378Z,25.12
2018-08-02T10:20:45.658Z,25.28
2018-08-02T10:21:51.645Z,25.21
2018-08-02T10:22:57.926Z,25.06
2018-08-02T10:24:03.822Z,25.20
2018-08-02T10:25:10.654Z,25.25
2018-08-02T10:26:16.940Z,25.39
2018-08-02T10:27:23.226Z,25.48
2018-08-02T10:28:29.472Z,25.57
2018-08-02T10:29:35.748Z,25.70
2018-08-02T10:30:41.772Z,25.78
2018-08-02T10:31:48.201Z,25.58
2018-08-02T10:32:54.313Z,25.81
2018-08-02T10:34:00.232Z,26.01
2018-08-02T10:35:06.133Z,26.05
2018-08-02T10:36:12.432Z,26.13
2018-08-02T10:37:18.864Z,26.32
2018-08-02T10:38:25.239Z,26.24
2018-08-02T10:39:31.485Z,26.24
2018-08-02T10:40:37.492Z,25.83
2018-08-02T10:41:43.524Z,25.77
2018-08-02T10:42:49.904Z,26.07
2018-08-02T10:43:56.274Z,26.34
2018-08-02T10:45:02.307Z,26.53
2018-08-02T10:46:08.300Z,26.34
2018-08-02T10:47:14.744Z,26.01
2018-08-02T10:48:21.012Z,26.22
2018-08-02T10:49:26.696Z,26.14
2018-08-02T10:50:32.818Z,26.36
2018-08-02T10:51:39.162Z,26.58
2018-08-02T10:52:45.440Z,26.61
2018-08-02T10:53:51.991Z,26.41
2018-08-02T10:54:58.329Z,26.46
2018-08-02T10:56:04.317Z,26.39
2018-08-02T10:57:10.923Z,26.44
2018-08-02T10:58:16.914Z,26.49
2018-08-02T10:59:22.916Z,26.23
2018-08-02T11:00:28.692Z,26.38
2018-08-02T11:01:34.787Z,26.11
2018-08-02T11:02:40.743Z,26.12
2018-08-02T11:03:46.774Z,26.33
2018-08-02T11:04:53.140Z,26.10
2018-08-02T11:05:58.856Z,26.10
2018-08-02T11:07:05.340Z,26.13
2018-08-02T11:08:11.267Z,26.03
2018-08-02T11:09:17.391Z,26.25
2018-08-02T11:10:23.527Z,26.50
2018-08-02T11:11:30.491Z,26.61
2018-08-02T11:12:36.659Z,26.52
2018-08-02T11:13:42.621Z,26.58
2018-08-02T11:14:49.048Z,26.65
2018-08-02T11:15:55.152Z,26.80
2018-08-02T11:17:01.577Z,26.93
2018-08-02T11:18:07.565Z,26.98
2018-08-02T11:19:13.582Z,26.98
2018-08-02T11:20:19.891Z,26.82
2018-08-02T11:21:25.876Z,26.93
2018-08-02T11:22:32.224Z,26.87
2018-08-02T11:23:38.233Z,26.98
2018-08-02T11:24:44.204Z,26.95
2018-08-02T11:25:50.322Z,26.96
2018-08-02T11:26:57.050Z,26.51
2018-08-02T11:28:02.816Z,26.43
2018-08-02T11:29:08.873Z,26.41
2018-08-02T11:30:16.119Z,26.61
2018-08-02T11:31:23.759Z,26.69
2018-08-02T11:32:29.762Z,27.01
2018-08-02T11:33:35.736Z,26.53
2018-08-02T11:34:41.737Z,26.56
2018-08-02T11:35:47.767Z,26.90
2018-08-02T11:36:53.816Z,26.98
2018-08-02T11:37:59.888Z,26.82
2018-08-02T11:39:05.173Z,27.03
2018-08-02T11:40:11.095Z,27.00
2018-08-02T11:41:17.116Z,26.99
2018-08-02T11:42:23.190Z,26.44
2018-08-02T11:43:29.180Z,26.65
2018-08-02T11:44:35.153Z,26.65
2018-08-02T11:45:41.553Z,26.50
2018-08-02T11:46:47.584Z,26.46
2018-08-02T11:47:53.625Z,26.62
2018-08-02T11:48:59.598Z,26.56
2018-08-02T11:50:05.353Z,26.49
2018-08-02T11:51:11.344Z,26.50
2018-08-02T11:52:18.259Z,26.52
2018-08-02T11:53:24.301Z,26.63
2018-08-02T11:54:30.330Z,26.46
2018-08-02T11:55:36.349Z,26.60
2018-08-02T11:56:42.407Z,26.58
2018-08-02T11:57:48.693Z,26.49
2018-08-02T11:58:54.657Z,26.68
2018-08-02T12:00:00.669Z,26.82
2018-08-02T12:01:06.676Z,26.75
2018-08-02T12:02:13.016Z,26.74
2018-08-02T12:03:19.363Z,26.78
2018-08-02T12:04:25.315Z,27.02
2018-08-02T12:05:31.324Z,27.02
2018-08-02T12:06:38.779Z,26.94
2018-08-02T12:07:45.494Z,26.84
2018-08-02T12:08:51.153Z,26.76
2018-08-02T12:09:57.283Z,26.98
2018-08-02T12:11:03.320Z,27.08
2018-08-02T12:12:09.301Z,27.07
2018-08-02T12:13:15.323Z,27.19
2018-08-02T12:14:21.300Z,27.29
2018-08-02T12:15:28.131Z,27.32
2018-08-02T12:16:34.231Z,27.66
2018-08-02T12:17:40.543Z,27.63
2018-08-02T12:18:46.557Z,27.64
2018-08-02T12:19:53.194Z,27.19
2018-08-02T12:20:59.180Z,27.26
2018-08-02T12:22:05.189Z,27.14
2018-08-02T12:23:11.217Z,27.50
2018-08-02T12:24:16.876Z,27.38
2018-08-02T12:25:22.879Z,27.22
2018-08-02T12:26:29.027Z,27.32
2018-08-02T12:27:35.000Z,27.44
2018-08-02T12:28:41.052Z,27.75
2018-08-02T12:29:47.125Z,28.08
2018-08-02T12:30:53.131Z,27.77
2018-08-02T12:31:59.466Z,27.91
2018-08-02T12:33:05.483Z,28.17
2018-08-02T12:34:11.343Z,28.36
2018-08-02T12:35:17.343Z,28.22
2018-08-02T12:36:23.339Z,28.19
2018-08-02T12:37:29.368Z,28.36
2018-08-02T12:38:35.383Z,28.55
2018-08-02T12:39:41.361Z,28.10
2018-08-02T12:40:47.382Z,28.02
2018-08-02T12:41:53.009Z,28.10
2018-08-02T12:42:59.264Z,28.11
2018-08-02T12:44:05.192Z,28.29
2018-08-02T12:45:11.208Z,28.37
2018-08-02T12:46:17.171Z,28.40
2018-08-02T12:47:23.205Z,28.23
2018-08-02T12:48:29.249Z,28.21
2018-08-02T12:49:34.744Z,28.35
2018-08-02T12:50:40.697Z,28.29
2018-08-02T12:51:47.140Z,28.21
2018-08-02T12:52:53.288Z,28.40
2018-08-02T12:53:59.652Z,28.44
2018-08-02T12:55:05.440Z,28.59
2018-08-02T12:56:11.512Z,28.71
2018-08-02T12:57:17.749Z,28.74
2018-08-02T12:58:23.788Z,28.72
2018-08-02T12:59:29.849Z,28.71
2018-08-02T13:00:35.868Z,28.64
2018-08-02T13:01:41.975Z,28.60
2018-08-02T13:02:48.112Z,28.48
2018-08-02T13:03:54.516Z,28.33
2018-08-02T13:05:00.484Z,28.57
2018-08-02T13:06:06.492Z,28.34
2018-08-02T13:07:12.527Z,28.48
2018-08-02T13:08:18.547Z,28.42
2018-08-02T13:09:24.563Z,28.65
2018-08-02T13:10:30.899Z,28.80
2018-08-02T13:11:37.168Z,29.01
2018-08-02T13:12:43.136Z,28.82
2018-08-02T13:13:49.184Z,28.92
2018-08-02T13:14:54.960Z,28.69
2018-08-02T13:16:01.005Z,28.45
2018-08-02T13:17:06.300Z,28.44
2018-08-02T13:18:12.465Z,28.45
2018-08-02T13:19:18.787Z,28.55
2018-08-02T13:20:24.717Z,28.78
2018-08-02T13:21:30.287Z,29.00
2018-08-02T13:22:36.368Z,29.10
2018-08-02T13:23:42.211Z,28.95
2018-08-02T13:24:48.223Z,28.87
2018-08-02T13:25:55.063Z,28.75
2018-08-02T13:27:01.109Z,28.94
2018-08-02T13:28:06.758Z,28.82
2018-08-02T13:29:13.048Z,28.96
2018-08-02T13:30:18.717Z,29.34
2018-08-02T13:31:25.012Z,29.51
2018-08-02T13:32:31.064Z,29.49
2018-08-02T13:33:37.060Z,29.28
2018-08-02T13:34:43.004Z,29.26
2018-08-02T13:35:49.297Z,29.27
2018-08-02T13:36:55.568Z,29.17
2018-08-02T13:38:01.276Z,29.36
2018-08-02T13:39:06.612Z,29.35
2018-08-02T13:40:13.796Z,29.52
2018-08-02T13:41:21.231Z,29.47
2018-08-02T13:42:30.179Z,29.32
2018-08-02T13:43:36.498Z,29.41
2018-08-02T13:44:42.619Z,29.58
2018-08-02T13:45:48.849Z,29.60
2018-08-02T13:46:54.992Z,29.79
2018-08-02T13:48:01.749Z,29.89
2018-08-02T13:49:07.800Z,29.97
2018-08-02T13:50:13.386Z,29.97
2018-08-02T13:51:19.455Z,30.05
2018-08-02T13:52:25.200Z,29.85
2018-08-02T13:53:31.756Z,29.76
2018-08-02T13:54:37.825Z,29.73
2018-08-02T13:55:44.829Z,29.61
2018-08-02T13:56:50.840Z,29.50
2018-08-02T13:57:56.809Z,29.56
2018-08-02T13:59:02.852Z,29.63
2018-08-02T14:00:08.789Z,29.75
2018-08-02T14:01:14.742Z,29.86
2018-08-02T14:02:20.401Z,29.85
2018-08-02T14:03:26.365Z,29.69
2018-08-02T14:04:32.504Z,29.79
2018-08-02T14:05:39.030Z,29.72
2018-08-02T14:06:44.965Z,29.53
2018-08-02T14:07:50.989Z,29.53
2018-08-02T14:08:57.029Z,29.34
2018-08-02T14:10:03.173Z,29.24
2018-08-02T14:11:09.007Z,29.35
2018-08-02T14:12:14.731Z,29.59
2018-08-02T14:13:20.673Z,29.65
2018-08-02T14:14:26.736Z,29.91
2018-08-02T14:15:32.722Z,29.76